createdAt,value
2022-07-29T00:09:26.480Z,26.08
2022-07-29T00:19:41.201Z,26.02
2022-07-29T00:30:00.006Z,25.94
2022-07-29T00:40:02.192Z,25.91
2022-07-29T00:50:11.180Z,25.96
2022-07-29T01:00:24.608Z,25.91
2022-07-29T01:10:25.922Z,25.90
2022-07-29T01:20:31.935Z,25.96
2022-07-29T01:30:38.318Z,25.89
2022-07-29T01:40:44.387Z,25.88
2022-07-29T01:50:50.615Z,25.87
2022-07-29T02:01:07.050Z,25.87
2022-07-29T02:11:13.567Z,26.01
2022-07-29T02:21:22.548Z,26.00
2022-07-29T02:31:28.305Z,25.99
2022-07-29T02:41:30.668Z,25.85
2022-07-29T03:01:59.470Z,25.85
2022-07-29T03:22:19.785Z,25.85
2022-07-29T03:32:34.670Z,25.77
2022-07-29T03:42:36.000Z,25.80
2022-07-29T03:52:37.535Z,25.80
2022-07-29T04:02:38.972Z,25.81
2022-07-29T04:12:40.256Z,25.78
2022-07-29T04:22:41.540Z,24.72
2022-07-29T04:32:45.652Z,24.62
2022-07-29T04:42:47.782Z,24.56
2022-07-29T04:52:49.319Z,24.93
2022-07-29T05:02:50.651Z,24.64
2022-07-29T05:23:22.257Z,24.84
2022-07-29T05:33:35.044Z,24.73
2022-07-29T05:43:40.059Z,22.48
2022-07-29T05:53:41.367Z,22.09
2022-07-29T06:03:42.685Z,21.89
2022-07-29T06:13:44.039Z,23.00
2022-07-29T06:23:45.357Z,23.65
2022-07-29T06:33:46.631Z,23.39
2022-07-29T06:43:51.880Z,23.55
2022-07-29T06:53:59.794Z,23.38
2022-07-29T07:04:04.421Z,23.36
2022-07-29T07:14:05.696Z,23.33
2022-07-29T07:24:10.230Z,23.87
2022-07-29T07:34:11.619Z,24.34
2022-07-29T07:44:19.831Z,25.06
2022-07-29T08:04:50.248Z,25.19
2022-07-29T08:14:51.545Z,25.22
2022-07-29T08:24:59.285Z,25.47
2022-07-29T08:35:07.527Z,25.35
2022-07-29T08:45:16.307Z,25.39
2022-07-29T08:55:24.301Z,25.43
2022-07-29T09:05:27.467Z,25.39
2022-07-29T09:15:35.748Z,25.43
2022-07-29T09:25:44.440Z,25.47
2022-07-29T09:35:56.539Z,25.46
2022-07-29T09:46:01.324Z,25.51
2022-07-29T09:56:03.184Z,25.51
2022-07-29T10:16:25.201Z,25.61
2022-07-29T10:26:34.020Z,25.72
2022-07-29T10:36:35.652Z,25.74
2022-07-29T10:46:41.266Z,25.77
2022-07-29T10:56:43.255Z,25.79
2022-07-29T11:06:45.585Z,25.82
2022-07-29T11:16:50.385Z,25.84
2022-07-29T11:26:52.223Z,25.89
2022-07-29T11:36:53.504Z,25.93
2022-07-29T11:46:54.819Z,25.99
2022-07-29T11:56:57.322Z,26.08
2022-07-29T12:17:06.669Z,26.07
2022-07-29T12:27:12.143Z,26.18
2022-07-29T12:37:20.311Z,26.52
2022-07-29T12:47:47.365Z,26.40
2022-07-29T12:57:48.958Z,26.34
2022-07-29T13:07:55.894Z,26.37
2022-07-29T13:18:02.941Z,26.37
2022-07-29T13:28:04.227Z,26.37
2022-07-29T13:38:07.145Z,26.36
2022-07-29T13:48:16.364Z,26.36
2022-07-29T13:58:25.351Z,26.38
2022-07-29T14:08:35.356Z,26.38
2022-07-29T14:18:43.347Z,26.41
2022-07-29T14:28:51.495Z,26.41
2022-07-29T14:39:00.260Z,26.39
2022-07-29T14:59:33.490Z,26.41
2022-07-29T15:09:36.228Z,26.44
2022-07-29T15:19:44.779Z,26.44
2022-07-29T15:29:51.587Z,26.48
2022-07-29T15:39:55.948Z,26.49
2022-07-29T15:49:59.698Z,26.51
2022-07-29T16:00:04.444Z,26.48
2022-07-29T16:31:10.368Z,26.49
2022-07-29T16:41:18.396Z,26.50
2022-07-29T16:51:26.347Z,26.49
2022-07-29T17:01:34.424Z,26.51
2022-07-29T17:11:52.402Z,26.52
2022-07-29T17:53:30.224Z,26.55
2022-07-29T18:03:31.525Z,26.53
2022-07-29T18:13:39.404Z,26.57
2022-07-29T18:23:47.452Z,26.56
2022-07-29T18:33:59.723Z,26.58
2022-07-29T19:15:05.832Z,26.56
2022-07-29T19:25:15.993Z,26.49
2022-07-29T19:35:17.447Z,26.48
2022-07-29T19:45:18.747Z,26.44
2022-07-29T19:55:20.045Z,26.40
2022-07-29T20:05:27.839Z,26.37
2022-07-29T20:15:29.612Z,26.35
2022-07-29T20:25:30.873Z,26.38
2022-07-29T20:35:32.156Z,26.43
2022-07-29T20:45:33.468Z,26.41
2022-07-29T20:55:34.810Z,26.45
2022-07-29T21:05:36.203Z,26.41
2022-07-29T21:15:37.657Z,26.36
2022-07-29T21:25:38.971Z,26.37
2022-07-29T21:36:14.930Z,26.36
2022-07-29T21:46:01.744Z,26.35
2022-07-29T21:56:03.224Z,26.33
2022-07-29T22:06:07.227Z,26.32
2022-07-29T22:16:08.519Z,26.29
2022-07-29T22:26:09.770Z,26.29
2022-07-29T22:36:11.048Z,26.28
2022-07-29T22:46:12.553Z,26.29
2022-07-29T22:56:13.900Z,26.32
2022-07-29T23:06:15.171Z,26.29
2022-07-29T23:16:16.657Z,26.26
2022-07-29T23:26:28.232Z,26.26
2022-07-29T23:36:29.501Z,26.26
2022-07-29T23:46:30.784Z,26.27
2022-07-29T23:56:32.125Z,26.24
